Time;durP1;ratioP1;P1;durP2;ratioP2;P2;SDS_P1;SDS_P2;PMS_P1;PMS_P2;Temp;Humidity;BMP_temperature;BMP_pressure;BME280_temperature;BME280_humidity;BME280_pressure;Samples;Min_cycle;Max_cycle;Signal;HPM_P1;HPM_P2
2020/12/31 00:01:00;;;;;;;24.73;15.32;;;2.90;99.90;;;;;;486611;243;27647;-74
2020/12/31 00:03:01;;;;;;;24.12;15.75;;;2.90;99.90;;;;;;486693;243;27560;-72
2020/12/31 00:05:03;;;;;;;19.90;13.20;;;2.90;99.90;;;;;;486638;243;27518;-73
2020/12/31 00:07:04;;;;;;;20.50;13.25;;;2.90;99.90;;;;;;486635;243;27608;-72
2020/12/31 00:09:05;;;;;;;22.20;14.23;;;2.90;99.90;;;;;;486673;243;28001;-74
2020/12/31 00:11:06;;;;;;;22.77;14.98;;;2.90;99.90;;;;;;486603;244;28094;-71
2020/12/31 00:13:08;;;;;;;21.00;14.02;;;2.90;99.90;;;;;;486651;244;27680;-72
2020/12/31 00:15:09;;;;;;;20.92;13.93;;;2.90;99.90;;;;;;486644;243;27545;-73
2020/12/31 00:17:10;;;;;;;18.65;13.20;;;2.90;99.90;;;;;;486622;244;27546;-71
2020/12/31 00:19:11;;;;;;;21.55;13.23;;;2.90;99.90;;;;;;486687;243;27605;-74
2020/12/31 00:21:13;;;;;;;19.73;12.63;;;2.90;99.90;;;;;;486602;244;27528;-74
2020/12/31 00:23:14;;;;;;;17.90;12.18;;;2.90;99.90;;;;;;486634;244;27640;-72
2020/12/31 00:25:15;;;;;;;20.10;13.10;;;2.80;99.90;;;;;;486652;243;28866;-72
2020/12/31 00:27:16;;;;;;;17.10;12.10;;;2.80;99.90;;;;;;486683;243;28012;-72
2020/12/31 00:29:18;;;;;;;17.20;11.07;;;2.80;99.90;;;;;;486705;243;27526;-72
2020/12/31 00:31:19;;;;;;;18.98;11.85;;;2.80;99.90;;;;;;486701;243;27591;-72
2020/12/31 00:33:20;;;;;;;16.77;11.38;;;2.90;99.90;;;;;;486753;244;27976;-72
2020/12/31 00:35:21;;;;;;;17.85;11.35;;;2.90;99.90;;;;;;486799;243;27546;-73
2020/12/31 00:37:23;;;;;;;15.73;10.98;;;2.80;99.90;;;;;;486775;243;27484;-72
2020/12/31 00:39:24;;;;;;;15.90;11.23;;;2.80;99.90;;;;;;486805;243;27975;-73
2020/12/31 00:41:25;;;;;;;16.12;11.35;;;2.80;99.90;;;;;;486765;243;28798;-72
2020/12/31 00:43:26;;;;;;;16.17;11.40;;;2.80;99.90;;;;;;486836;243;27573;-72
2020/12/31 00:45:28;;;;;;;15.80;10.52;;;2.90;99.90;;;;;;486847;243;27507;-73
2020/12/31 00:47:29;;;;;;;15.70;11.27;;;2.80;99.90;;;;;;486668;244;27613;-73
2020/12/31 00:49:30;;;;;;;18.37;10.68;;;2.70;99.90;;;;;;486672;244;27993;-72
2020/12/31 00:51:31;;;;;;;13.60;9.52;;;2.70;99.90;;;;;;486619;244;27615;-71
2020/12/31 00:53:33;;;;;;;14.82;9.95;;;2.70;99.90;;;;;;486609;244;27632;-72
2020/12/31 00:55:34;;;;;;;16.30;10.65;;;2.80;99.90;;;;;;486674;244;28116;-71
2020/12/31 00:57:35;;;;;;;14.18;10.00;;;2.70;99.90;;;;;;486672;244;27922;-72
2020/12/31 00:59:37;;;;;;;18.02;11.27;;;2.80;99.90;;;;;;486684;244;28128;-73
2020/12/31 01:01:38;;;;;;;17.62;10.52;;;2.80;99.90;;;;;;486636;243;27656;-73
2020/12/31 01:03:39;;;;;;;15.40;9.85;;;2.80;99.90;;;;;;486623;243;27574;-72
2020/12/31 01:05:40;;;;;;;15.82;10.60;;;2.70;99.90;;;;;;486631;244;27598;-73
2020/12/31 01:07:42;;;;;;;14.85;10.18;;;2.70;99.90;;;;;;486694;244;27911;-71
2020/12/31 01:09:43;;;;;;;14.75;9.98;;;2.70;99.90;;;;;;486669;243;27618;-74
2020/12/31 01:11:44;;;;;;;13.77;10.00;;;2.70;99.90;;;;;;486600;244;27550;-74
2020/12/31 01:13:45;;;;;;;15.55;10.68;;;2.70;99.90;;;;;;486647;243;28013;-73
2020/12/31 01:15:47;;;;;;;15.63;9.82;;;2.60;99.90;;;;;;486631;244;29086;-73
2020/12/31 01:17:48;;;;;;;14.30;9.57;;;2.60;99.90;;;;;;486637;244;27610;-72
2020/12/31 01:19:49;;;;;;;13.77;9.35;;;2.60;99.90;;;;;;486680;240;27452;-71
2020/12/31 01:21:50;;;;;;;13.05;9.23;;;2.70;99.90;;;;;;487676;240;27504;-73
2020/12/31 01:23:52;;;;;;;16.73;10.15;;;2.70;99.90;;;;;;486673;244;28000;-72
2020/12/31 01:25:53;;;;;;;12.43;8.90;;;2.80;99.90;;;;;;486565;244;27525;-72
2020/12/31 01:27:54;;;;;;;14.32;9.55;;;2.70;99.90;;;;;;486540;244;27594;-74
2020/12/31 01:29:55;;;;;;;14.50;8.57;;;2.60;99.90;;;;;;486675;244;27459;-72
2020/12/31 01:31:57;;;;;;;17.33;9.68;;;2.60;99.90;;;;;;486671;244;28026;-72
2020/12/31 01:33:58;;;;;;;11.02;8.27;;;2.60;99.90;;;;;;486720;244;28033;-73
2020/12/31 01:35:59;;;;;;;13.77;9.50;;;2.60;99.90;;;;;;486607;244;27535;-71
2020/12/31 01:38:00;;;;;;;19.48;8.55;;;2.60;99.90;;;;;;486629;244;27849;-72
2020/12/31 01:40:02;;;;;;;11.85;7.80;;;2.60;99.90;;;;;;486578;244;27478;-76
2020/12/31 01:42:03;;;;;;;10.60;7.40;;;2.60;99.90;;;;;;486781;244;27517;-73
2020/12/31 01:44:04;;;;;;;13.88;8.00;;;2.60;99.90;;;;;;486822;244;27509;-71
2020/12/31 01:46:05;;;;;;;9.35;7.18;;;2.60;99.90;;;;;;487025;241;27588;-72
2020/12/31 01:48:07;;;;;;;12.75;7.30;;;2.50;99.90;;;;;;487266;243;27515;-72
2020/12/31 01:50:08;;;;;;;10.27;7.18;;;2.50;99.90;;;;;;487149;243;27519;-72
2020/12/31 01:52:09;;;;;;;10.55;7.00;;;2.50;99.90;;;;;;486777;240;28035;-72
2020/12/31 01:54:10;;;;;;;9.10;7.22;;;2.40;99.90;;;;;;486811;244;28058;-73
2020/12/31 01:56:12;;;;;;;10.50;7.30;;;2.40;99.90;;;;;;486789;244;28749;-72
2020/12/31 01:58:13;;;;;;;8.15;6.35;;;2.40;99.90;;;;;;486836;244;27494;-72
2020/12/31 02:00:14;;;;;;;8.02;6.00;;;2.30;99.90;;;;;;486737;244;27479;-71
2020/12/31 02:02:15;;;;;;;12.30;6.95;;;2.30;99.90;;;;;;478422;248;27504;-72
2020/12/31 02:04:17;;;;;;;9.80;7.05;;;2.30;99.90;;;;;;478442;248;27418;-73
2020/12/31 02:06:18;;;;;;;10.63;7.40;;;2.30;99.90;;;;;;478437;248;27390;-72
2020/12/31 02:08:19;;;;;;;8.80;6.70;;;2.40;99.90;;;;;;479111;244;27516;-73
2020/12/31 02:10:20;;;;;;;10.35;6.65;;;2.30;99.90;;;;;;486558;244;27595;-71
2020/12/31 02:12:22;;;;;;;9.20;6.78;;;2.30;99.90;;;;;;486593;244;27525;-72
2020/12/31 02:14:23;;;;;;;7.60;6.10;;;2.40;99.90;;;;;;486594;244;27514;-73
2020/12/31 02:16:24;;;;;;;8.18;6.10;;;2.40;99.90;;;;;;486599;244;27964;-72
2020/12/31 02:18:25;;;;;;;7.65;6.20;;;2.30;99.90;;;;;;486615;244;28036;-74
2020/12/31 02:20:27;;;;;;;9.23;6.43;;;2.40;99.90;;;;;;486562;244;29095;-74
2020/12/31 02:22:28;;;;;;;8.50;6.18;;;2.30;99.90;;;;;;486587;240;27500;-72
2020/12/31 02:24:29;;;;;;;6.60;5.37;;;2.20;99.90;;;;;;486709;244;27626;-72
2020/12/31 02:26:30;;;;;;;9.13;6.62;;;2.20;99.90;;;;;;486636;244;27853;-72
2020/12/31 02:28:32;;;;;;;7.85;5.62;;;2.30;99.90;;;;;;486816;244;27411;-74
2020/12/31 02:30:34;;;;;;;8.43;5.82;;;2.30;99.90;;;;;;486767;244;27430;-74
2020/12/31 02:32:34;;;;;;;8.32;6.10;;;2.20;99.90;;;;;;486775;240;27493;-73
2020/12/31 02:34:35;;;;;;;8.95;5.60;;;2.20;99.90;;;;;;486682;244;27526;-72
2020/12/31 02:36:37;;;;;;;9.32;6.22;;;2.20;99.90;;;;;;486784;244;27502;-73
2020/12/31 02:38:38;;;;;;;8.45;6.03;;;2.20;99.90;;;;;;486739;244;27489;-71
2020/12/31 02:40:39;;;;;;;6.45;5.00;;;2.10;99.90;;;;;;486574;244;27520;-72
2020/12/31 02:42:40;;;;;;;6.22;4.75;;;2.20;99.90;;;;;;486625;244;27555;-72
2020/12/31 02:44:42;;;;;;;5.32;4.78;;;2.10;99.90;;;;;;486593;244;28044;-73
2020/12/31 02:46:43;;;;;;;6.82;5.43;;;2.10;99.90;;;;;;486657;244;28126;-74
2020/12/31 02:48:44;;;;;;;7.87;5.80;;;2.10;99.90;;;;;;486650;244;28022;-71
2020/12/31 02:50:45;;;;;;;10.00;5.78;;;2.20;99.90;;;;;;486611;244;28085;-73
2020/12/31 02:52:47;;;;;;;5.57;4.82;;;2.10;99.90;;;;;;486682;240;27576;-73
2020/12/31 02:54:48;;;;;;;6.90;5.00;;;2.10;99.90;;;;;;486652;244;27611;-71
2020/12/31 02:56:49;;;;;;;7.62;4.85;;;2.10;99.90;;;;;;486871;244;27419;-75
2020/12/31 02:58:50;;;;;;;4.55;4.10;;;2.10;99.90;;;;;;486738;244;27578;-71
2020/12/31 03:00:52;;;;;;;5.37;4.53;;;2.10;99.90;;;;;;486775;240;27602;-72
2020/12/31 03:02:53;;;;;;;7.25;4.40;;;2.10;99.90;;;;;;486933;244;27360;-72
2020/12/31 03:04:54;;;;;;;6.72;5.03;;;2.00;99.90;;;;;;486859;244;27365;-72
2020/12/31 03:06:55;;;;;;;7.55;5.20;;;2.00;99.90;;;;;;486819;244;27528;-74
2020/12/31 03:08:57;;;;;;;5.95;4.65;;;2.00;99.90;;;;;;486787;244;27528;-72
2020/12/31 03:10:58;;;;;;;6.65;5.35;;;2.00;99.90;;;;;;486823;244;27939;-72
2020/12/31 03:12:59;;;;;;;5.80;4.90;;;2.00;99.90;;;;;;486973;244;28324;-72
2020/12/31 03:15:00;;;;;;;7.00;5.03;;;2.00;99.90;;;;;;486910;244;27889;-72
2020/12/31 03:17:02;;;;;;;8.73;5.20;;;2.00;99.90;;;;;;486928;244;27888;-74
2020/12/31 03:19:03;;;;;;;6.45;4.72;;;2.10;99.90;;;;;;486861;244;27368;-72
2020/12/31 03:21:04;;;;;;;5.40;4.90;;;2.00;99.90;;;;;;486764;244;27486;-71
2020/12/31 03:23:05;;;;;;;6.68;5.15;;;2.10;99.90;;;;;;486694;244;27451;-72
2020/12/31 03:25:07;;;;;;;4.80;4.30;;;2.10;99.90;;;;;;486701;244;27492;-72
2020/12/31 03:27:08;;;;;;;7.93;4.65;;;2.10;99.90;;;;;;486750;244;27399;-73
2020/12/31 03:29:09;;;;;;;5.87;4.45;;;2.10;99.90;;;;;;486796;244;27530;-71
2020/12/31 03:31:10;;;;;;;6.75;5.15;;;2.10;99.90;;;;;;486739;240;27534;-73
2020/12/31 03:33:15;;;;;;;4.95;4.40;;;2.10;99.90;;;;;;486693;240;27502;-73
2020/12/31 03:35:16;;;;;;;6.10;5.20;;;2.10;99.90;;;;;;486626;241;27582;-72
2020/12/31 03:37:17;;;;;;;6.75;5.07;;;2.10;99.90;;;;;;486662;244;27544;-73
2020/12/31 03:39:18;;;;;;;6.20;5.60;;;2.10;99.90;;;;;;486627;244;27590;-73
2020/12/31 03:41:20;;;;;;;8.45;5.50;;;2.10;99.90;;;;;;486587;244;27647;-73
2020/12/31 03:43:21;;;;;;;7.15;5.10;;;2.00;99.90;;;;;;486609;244;28006;-73
2020/12/31 03:45:22;;;;;;;7.50;5.10;;;2.00;99.90;;;;;;486751;244;28203;-71
2020/12/31 03:47:23;;;;;;;8.10;5.47;;;2.00;99.90;;;;;;486781;244;27974;-71
2020/12/31 03:49:25;;;;;;;6.87;5.35;;;2.00;99.90;;;;;;486803;244;28089;-71
2020/12/31 03:51:26;;;;;;;9.95;5.03;;;2.00;99.90;;;;;;486761;244;27495;-74
2020/12/31 03:53:27;;;;;;;7.53;5.10;;;2.00;99.90;;;;;;486782;244;27423;-73
2020/12/31 03:55:28;;;;;;;7.03;5.50;;;2.10;99.90;;;;;;486764;244;27410;-72
2020/12/31 03:57:30;;;;;;;5.80;4.55;;;2.10;99.90;;;;;;486752;244;27415;-72
2020/12/31 03:59:31;;;;;;;6.80;4.90;;;2.20;99.90;;;;;;486798;244;27407;-71
2020/12/31 04:01:32;;;;;;;7.25;4.62;;;2.20;99.90;;;;;;486760;244;27755;-73
2020/12/31 04:03:33;;;;;;;8.00;5.15;;;2.10;99.90;;;;;;486751;240;27491;-73
2020/12/31 04:05:35;;;;;;;8.13;5.10;;;2.00;99.90;;;;;;486622;240;27564;-72
2020/12/31 04:07:36;;;;;;;6.97;5.35;;;2.00;99.90;;;;;;486684;244;27531;-74
2020/12/31 04:09:37;;;;;;;7.20;4.72;;;2.00;99.90;;;;;;486713;244;27571;-71
2020/12/31 04:11:38;;;;;;;5.20;4.70;;;2.00;99.90;;;;;;486631;244;28023;-72
2020/12/31 04:13:40;;;;;;;7.60;5.50;;;2.00;99.90;;;;;;486738;244;28907;-73
2020/12/31 04:15:41;;;;;;;6.20;5.05;;;2.00;99.90;;;;;;486757;244;27901;-72
2020/12/31 04:17:42;;;;;;;6.75;4.90;;;2.00;99.90;;;;;;486804;244;27902;-74
2020/12/31 04:19:44;;;;;;;6.55;4.65;;;2.00;99.90;;;;;;486781;244;27541;-72
2020/12/31 04:21:45;;;;;;;7.28;5.45;;;1.90;99.90;;;;;;486740;244;27403;-72
2020/12/31 04:23:46;;;;;;;7.53;5.07;;;1.90;99.90;;;;;;486633;244;27478;-73
2020/12/31 04:25:47;;;;;;;5.05;4.60;;;1.90;99.90;;;;;;486819;244;27430;-71
2020/12/31 04:27:48;;;;;;;6.85;4.80;;;2.00;99.90;;;;;;486870;244;27531;-76
2020/12/31 04:29:50;;;;;;;5.57;4.70;;;2.00;99.90;;;;;;486990;244;27436;-72
2020/12/31 04:31:51;;;;;;;5.97;4.78;;;2.00;99.90;;;;;;486956;244;27459;-72
2020/12/31 04:33:52;;;;;;;6.15;4.70;;;2.00;99.90;;;;;;486937;244;27435;-71
2020/12/31 04:35:53;;;;;;;5.10;4.60;;;2.00;99.90;;;;;;486940;240;27518;-72
2020/12/31 04:37:55;;;;;;;5.90;4.45;;;2.00;99.90;;;;;;486914;244;27420;-74
2020/12/31 04:39:56;;;;;;;5.93;4.55;;;2.00;99.90;;;;;;486813;244;28013;-71
2020/12/31 04:41:57;;;;;;;7.00;5.40;;;2.00;99.90;;;;;;486739;244;27979;-71
2020/12/31 04:43:58;;;;;;;4.85;4.35;;;2.00;99.90;;;;;;486755;244;27995;-72
2020/12/31 04:46:00;;;;;;;7.68;5.25;;;2.10;99.90;;;;;;486762;244;27986;-72
2020/12/31 04:48:01;;;;;;;5.00;4.60;;;2.00;99.90;;;;;;486692;244;27868;-73
2020/12/31 04:50:02;;;;;;;6.30;4.55;;;2.00;99.90;;;;;;486652;244;27556;-72
2020/12/31 04:52:03;;;;;;;4.68;4.22;;;2.10;99.90;;;;;;486799;244;27434;-71
2020/12/31 04:54:05;;;;;;;6.15;4.60;;;2.00;99.90;;;;;;486810;244;27406;-73
2020/12/31 04:56:06;;;;;;;7.55;4.78;;;2.00;99.90;;;;;;486797;244;27403;-71
2020/12/31 04:58:07;;;;;;;6.53;4.47;;;2.10;99.90;;;;;;486820;244;27498;-73
2020/12/31 05:00:08;;;;;;;6.68;4.65;;;2.10;99.90;;;;;;486782;244;27395;-71
2020/12/31 05:02:10;;;;;;;5.57;4.20;;;2.10;99.90;;;;;;486780;244;27409;-71
2020/12/31 05:04:11;;;;;;;5.70;5.10;;;2.10;99.90;;;;;;486771;244;27533;-73
2020/12/31 05:06:12;;;;;;;5.95;4.62;;;2.10;99.90;;;;;;486786;240;27391;-71
2020/12/31 05:08:13;;;;;;;5.97;5.15;;;2.10;99.90;;;;;;486725;244;27971;-74
2020/12/31 05:10:15;;;;;;;6.87;5.05;;;2.00;99.90;;;;;;486654;244;28770;-72
2020/12/31 05:12:16;;;;;;;5.18;4.65;;;2.00;99.90;;;;;;486693;244;28070;-73
2020/12/31 05:14:17;;;;;;;5.20;4.40;;;2.00;99.90;;;;;;486787;244;28079;-72
2020/12/31 05:16:18;;;;;;;5.90;4.57;;;1.90;99.90;;;;;;486789;244;27625;-71
2020/12/31 05:18:20;;;;;;;6.10;4.15;;;2.00;99.90;;;;;;486829;244;27513;-74
2020/12/31 05:20:21;;;;;;;5.75;4.57;;;2.00;99.90;;;;;;486753;244;27482;-73
2020/12/31 05:22:22;;;;;;;5.70;4.60;;;2.00;99.90;;;;;;486824;244;27419;-73
2020/12/31 05:24:23;;;;;;;4.82;4.00;;;2.00;99.90;;;;;;486769;244;27415;-72
2020/12/31 05:26:25;;;;;;;5.03;4.50;;;2.00;99.90;;;;;;486775;244;27508;-72
2020/12/31 05:28:26;;;;;;;5.55;4.45;;;2.10;99.90;;;;;;486797;244;27436;-73
2020/12/31 05:30:27;;;;;;;5.97;4.55;;;2.00;99.90;;;;;;486749;244;27431;-71
2020/12/31 05:32:28;;;;;;;5.57;4.90;;;2.00;99.90;;;;;;486779;244;27475;-73
2020/12/31 05:34:30;;;;;;;8.05;4.97;;;2.00;99.90;;;;;;486772;244;27412;-73
2020/12/31 05:36:31;;;;;;;5.53;4.45;;;2.00;99.90;;;;;;486771;240;27907;-72
2020/12/31 05:38:32;;;;;;;5.43;4.87;;;2.00;99.90;;;;;;486776;240;28628;-71
2020/12/31 05:40:33;;;;;;;5.53;4.32;;;2.00;99.90;;;;;;486668;240;29182;-74
2020/12/31 05:42:35;;;;;;;5.00;4.07;;;2.00;99.90;;;;;;486615;240;28003;-72
2020/12/31 05:44:36;;;;;;;5.90;4.90;;;2.00;99.90;;;;;;486643;244;27531;-73
2020/12/31 05:46:37;;;;;;;7.18;5.28;;;2.10;99.90;;;;;;486702;240;27571;-72
2020/12/31 05:48:38;;;;;;;9.63;5.00;;;2.10;99.90;;;;;;486660;244;27576;-72
2020/12/31 05:50:41;;;;;;;6.20;5.22;;;2.10;99.90;;;;;;486657;240;27505;-72
2020/12/31 05:52:41;;;;;;;6.60;5.32;;;2.00;99.90;;;;;;486614;240;27508;-72
2020/12/31 05:54:42;;;;;;;5.43;4.78;;;1.90;99.90;;;;;;486686;240;27511;-73
2020/12/31 05:56:43;;;;;;;6.55;5.00;;;1.80;99.90;;;;;;486648;244;27855;-75
2020/12/31 05:58:45;;;;;;;6.05;5.00;;;1.90;99.90;;;;;;486719;240;27466;-73
2020/12/31 06:00:46;;;;;;;7.20;5.20;;;1.90;99.90;;;;;;486750;240;27491;-73
2020/12/31 06:02:47;;;;;;;7.62;5.60;;;1.90;99.90;;;;;;486722;244;27542;-71
2020/12/31 06:04:48;;;;;;;6.75;5.35;;;2.00;99.90;;;;;;486655;240;27953;-72
2020/12/31 06:06:50;;;;;;;6.93;5.40;;;1.90;99.90;;;;;;486771;244;28117;-74
2020/12/31 06:08:51;;;;;;;7.60;5.68;;;1.90;99.90;;;;;;485044;240;27962;-72
2020/12/31 06:10:52;;;;;;;7.03;5.82;;;2.00;99.90;;;;;;486757;240;28082;-72
2020/12/31 06:12:54;;;;;;;7.85;6.47;;;1.90;99.90;;;;;;486846;240;27908;-73
2020/12/31 06:14:55;;;;;;;8.82;6.20;;;2.00;99.90;;;;;;486879;244;27459;-72
2020/12/31 06:16:56;;;;;;;6.15;5.15;;;2.00;99.90;;;;;;486764;240;27624;-73
2020/12/31 06:18:57;;;;;;;6.72;6.00;;;2.10;99.90;;;;;;486918;240;27349;-71
2020/12/31 06:20:58;;;;;;;8.15;5.65;;;2.10;99.90;;;;;;486805;244;27510;-73
2020/12/31 06:23:00;;;;;;;7.30;5.62;;;2.10;99.90;;;;;;486739;244;27971;-71
2020/12/31 06:25:01;;;;;;;7.95;6.20;;;2.10;99.90;;;;;;486793;244;27522;-72
2020/12/31 06:27:02;;;;;;;8.77;6.30;;;2.10;99.90;;;;;;486800;244;27784;-74
2020/12/31 06:29:03;;;;;;;7.72;6.25;;;2.10;99.90;;;;;;486801;244;27463;-72
2020/12/31 06:31:05;;;;;;;8.05;6.12;;;2.10;99.90;;;;;;486736;244;27588;-72
2020/12/31 06:33:06;;;;;;;7.75;5.75;;;2.10;99.90;;;;;;486634;244;27589;-75
2020/12/31 06:35:07;;;;;;;9.85;6.50;;;2.10;99.90;;;;;;486577;244;27991;-73
2020/12/31 06:37:09;;;;;;;8.65;6.32;;;2.10;99.90;;;;;;486612;244;28016;-73
2020/12/31 06:39:10;;;;;;;10.55;7.35;;;2.10;99.90;;;;;;486615;244;28022;-72
2020/12/31 06:41:11;;;;;;;10.93;7.85;;;2.10;99.90;;;;;;486556;244;27535;-73
2020/12/31 06:43:13;;;;;;;11.50;7.12;;;2.10;99.90;;;;;;486592;244;27587;-72
2020/12/31 06:45:13;;;;;;;10.55;7.78;;;2.10;99.90;;;;;;486507;244;27540;-72
2020/12/31 06:47:15;;;;;;;11.73;7.80;;;2.10;99.90;;;;;;486586;244;27847;-74
2020/12/31 06:49:16;;;;;;;9.70;7.35;;;1.90;99.90;;;;;;486599;240;27585;-72
2020/12/31 06:51:17;;;;;;;10.05;7.55;;;2.00;99.90;;;;;;486533;244;27500;-73
2020/12/31 06:53:18;;;;;;;11.30;7.97;;;2.00;99.90;;;;;;486674;244;27503;-72
2020/12/31 06:55:20;;;;;;;11.18;8.57;;;2.00;99.90;;;;;;486774;244;28084;-72
2020/12/31 06:57:21;;;;;;;11.43;8.43;;;1.90;99.90;;;;;;486761;244;28318;-72
2020/12/31 06:59:22;;;;;;;12.25;8.68;;;1.90;99.90;;;;;;486740;240;27973;-74
2020/12/31 07:01:23;;;;;;;13.38;8.20;;;1.90;99.90;;;;;;486542;244;27518;-72
2020/12/31 07:03:25;;;;;;;11.02;7.43;;;1.90;99.90;;;;;;486626;244;27594;-73
2020/12/31 07:05:26;;;;;;;10.68;7.05;;;1.90;99.90;;;;;;486735;244;27506;-73
2020/12/31 07:07:28;;;;;;;11.80;7.97;;;1.90;99.90;;;;;;486613;244;27500;-72
2020/12/31 07:09:29;;;;;;;11.65;7.95;;;1.80;99.90;;;;;;486774;244;27519;-72
2020/12/31 07:11:30;;;;;;;9.73;7.10;;;1.80;99.90;;;;;;486753;244;27446;-76
2020/12/31 07:13:31;;;;;;;8.30;6.72;;;1.80;99.90;;;;;;486788;244;27423;-73
2020/12/31 07:15:32;;;;;;;11.85;7.45;;;1.70;99.90;;;;;;486741;244;27419;-72
2020/12/31 07:17:34;;;;;;;11.40;8.32;;;1.70;99.90;;;;;;486744;244;28796;-73
2020/12/31 07:19:35;;;;;;;8.50;6.72;;;1.80;99.90;;;;;;486763;240;28034;-73
2020/12/31 07:21:37;;;;;;;9.20;6.82;;;1.80;99.90;;;;;;486686;240;28057;-72
2020/12/31 07:23:37;;;;;;;11.02;7.20;;;1.80;99.90;;;;;;486727;244;27419;-73
2020/12/31 07:25:38;;;;;;;9.48;6.15;;;1.70;99.90;;;;;;486720;244;27411;-73
2020/12/31 07:27:40;;;;;;;8.63;6.60;;;1.70;99.90;;;;;;486629;244;27573;-71
2020/12/31 07:29:41;;;;;;;8.52;6.72;;;1.70;99.90;;;;;;486623;244;27552;-73
2020/12/31 07:31:42;;;;;;;7.80;6.97;;;1.70;99.90;;;;;;486603;244;27502;-73
2020/12/31 07:33:44;;;;;;;8.80;6.60;;;1.80;99.90;;;;;;486691;244;27498;-72
2020/12/31 07:35:54;;;;;;;7.55;6.35;;;1.80;99.90;;;;;;486975;244;27517;-73
2020/12/31 07:37:46;;;;;;;9.23;6.95;;;1.80;99.90;;;;;;486674;244;27751;-71
2020/12/31 07:39:47;;;;;;;9.77;6.18;;;1.90;99.90;;;;;;486977;244;27497;-72
2020/12/31 07:41:49;;;;;;;8.93;6.60;;;1.80;99.90;;;;;;486927;244;27375;-71
2020/12/31 07:43:50;;;;;;;7.87;6.40;;;1.70;99.90;;;;;;486962;244;27823;-72
2020/12/31 07:45:51;;;;;;;8.57;6.47;;;1.80;99.90;;;;;;486955;244;28068;-73
2020/12/31 07:47:52;;;;;;;7.68;5.70;;;1.80;99.90;;;;;;486944;244;27901;-72
2020/12/31 07:49:54;;;;;;;8.02;6.40;;;1.90;99.90;;;;;;486925;240;27982;-72
2020/12/31 07:51:55;;;;;;;8.40;6.70;;;1.90;99.90;;;;;;486788;244;27407;-72
2020/12/31 07:53:56;;;;;;;9.60;6.70;;;1.90;99.90;;;;;;486736;244;27500;-72
2020/12/31 07:55:57;;;;;;;8.18;6.45;;;1.90;99.90;;;;;;484860;241;27392;-77
2020/12/31 07:57:59;;;;;;;8.25;6.10;;;1.80;99.90;;;;;;484448;245;27401;-74
2020/12/31 08:00:00;;;;;;;7.72;6.55;;;1.90;99.90;;;;;;484363;245;27432;-74
2020/12/31 08:02:01;;;;;;;7.35;6.15;;;2.00;99.90;;;;;;484342;245;27766;-79
2020/12/31 08:04:02;;;;;;;11.90;7.07;;;2.00;99.90;;;;;;484421;245;27551;-74
2020/12/31 08:06:04;;;;;;;10.05;7.35;;;1.90;99.90;;;;;;484477;245;27542;-75
2020/12/31 08:08:05;;;;;;;10.60;7.45;;;1.90;99.90;;;;;;484433;245;28023;-75
2020/12/31 08:10:06;;;;;;;9.13;7.10;;;1.90;99.90;;;;;;484375;245;27432;-75
2020/12/31 08:12:07;;;;;;;8.77;6.15;;;1.90;99.90;;;;;;484394;245;27524;-74
2020/12/31 08:14:09;;;;;;;8.52;6.87;;;2.00;99.90;;;;;;484345;245;27545;-75
2020/12/31 08:16:10;;;;;;;8.95;6.30;;;1.90;99.90;;;;;;484389;245;27408;-75
2020/12/31 08:18:11;;;;;;;7.62;6.18;;;1.90;99.90;;;;;;484378;245;27464;-74
2020/12/31 08:20:12;;;;;;;7.20;6.45;;;2.00;99.90;;;;;;484380;245;27597;-75
2020/12/31 08:22:14;;;;;;;8.40;6.40;;;2.00;99.90;;;;;;484393;245;27475;-73
2020/12/31 08:24:15;;;;;;;6.22;5.40;;;2.00;99.90;;;;;;493013;240;27860;-76
2020/12/31 08:26:18;;;;;;;7.35;6.05;;;1.90;99.90;;;;;;495377;240;27877;-76
2020/12/31 08:28:17;;;;;;;6.40;5.68;;;2.00;99.90;;;;;;495306;240;27881;-77
2020/12/31 08:32:39;;;;;;;6.05;5.00;;;1.80;99.90;;;;;;460631;253;27475;-75
2020/12/31 08:34:40;;;;;;;6.32;5.25;;;1.90;99.90;;;;;;458149;258;27501;-74
2020/12/31 08:36:42;;;;;;;6.05;4.90;;;1.90;99.90;;;;;;460205;257;27613;-75
2020/12/31 08:38:43;;;;;;;4.95;4.53;;;1.90;99.90;;;;;;462009;257;27507;-73
2020/12/31 08:40:44;;;;;;;5.60;4.62;;;2.00;99.90;;;;;;460453;253;27531;-74
2020/12/31 08:42:45;;;;;;;5.62;4.87;;;2.00;99.90;;;;;;457516;258;27633;-78
2020/12/31 08:44:47;;;;;;;5.87;4.85;;;1.90;99.90;;;;;;457564;258;27736;-74
2020/12/31 08:46:48;;;;;;;5.60;4.15;;;2.00;99.90;;;;;;457563;257;28191;-76
2020/12/31 08:48:49;;;;;;;4.80;4.35;;;1.90;99.90;;;;;;461982;257;28890;-73
2020/12/31 08:50:51;;;;;;;4.37;3.97;;;2.00;99.90;;;;;;461753;257;28205;-74
2020/12/31 08:52:52;;;;;;;4.70;4.30;;;2.00;99.90;;;;;;462134;257;28073;-75
2020/12/31 08:54:53;;;;;;;4.72;4.28;;;2.00;99.90;;;;;;462230;257;27468;-74
2020/12/31 08:56:54;;;;;;;4.28;3.87;;;1.90;99.90;;;;;;462217;257;27515;-72
2020/12/31 08:58:56;;;;;;;4.72;4.32;;;1.90;99.90;;;;;;462134;257;27511;-74
2020/12/31 09:00:57;;;;;;;4.78;4.28;;;1.90;99.90;;;;;;462187;257;27568;-74
2020/12/31 09:02:58;;;;;;;8.20;6.05;;;2.00;99.90;;;;;;462247;257;27591;-74
2020/12/31 09:04:59;;;;;;;5.03;4.00;;;2.00;99.90;;;;;;462210;257;27548;-75
2020/12/31 09:07:01;;;;;;;4.90;4.40;;;2.10;99.90;;;;;;462278;257;27962;-74
2020/12/31 09:09:02;;;;;;;5.28;3.90;;;2.20;99.90;;;;;;462176;257;28084;-78
2020/12/31 09:11:03;;;;;;;5.87;4.30;;;2.30;99.90;;;;;;462050;257;28012;-74
2020/12/31 09:13:04;;;;;;;4.07;3.72;;;2.20;99.90;;;;;;462163;257;29067;-77
2020/12/31 09:15:06;;;;;;;3.60;3.30;;;2.30;99.90;;;;;;462234;257;27476;-74
2020/12/31 09:17:07;;;;;;;3.67;3.37;;;2.30;99.90;;;;;;462081;257;27552;-74
2020/12/31 09:19:08;;;;;;;3.53;3.22;;;2.40;99.90;;;;;;462126;257;27599;-76
2020/12/31 09:21:09;;;;;;;3.65;3.35;;;2.30;99.90;;;;;;462102;257;27499;-74
2020/12/31 09:23:11;;;;;;;3.62;3.33;;;2.40;99.90;;;;;;462079;257;27492;-75
2020/12/31 09:25:12;;;;;;;5.37;4.18;;;2.40;99.90;;;;;;462417;257;27550;-74
2020/12/31 09:27:13;;;;;;;3.80;3.40;;;2.40;99.90;;;;;;453677;262;27637;-74
2020/12/31 09:29:14;;;;;;;3.83;3.53;;;2.50;99.90;;;;;;453901;261;27676;-75
2020/12/31 09:31:18;;;;;;;3.97;3.40;;;2.50;99.90;;;;;;454232;261;27637;-75
2020/12/31 09:33:17;;;;;;;3.22;2.95;;;2.30;99.90;;;;;;452830;261;27627;-75
2020/12/31 09:35:18;;;;;;;3.75;3.37;;;2.30;99.90;;;;;;452956;262;28164;-76
2020/12/31 09:37:19;;;;;;;3.55;3.25;;;2.30;99.90;;;;;;453009;262;28198;-75
2020/12/31 09:39:21;;;;;;;3.78;3.35;;;2.20;99.90;;;;;;452992;262;28101;-74
2020/12/31 09:41:22;;;;;;;4.53;3.70;;;2.40;99.90;;;;;;452954;262;28097;-74
2020/12/31 09:43:23;;;;;;;4.20;3.35;;;2.50;99.90;;;;;;453015;262;27716;-74
2020/12/31 09:45:24;;;;;;;4.65;4.25;;;2.50;99.90;;;;;;453005;262;27630;-75
2020/12/31 09:47:26;;;;;;;4.05;3.65;;;2.30;99.90;;;;;;452970;262;27629;-75
2020/12/31 09:49:27;;;;;;;4.00;3.70;;;2.30;99.90;;;;;;453013;262;27715;-76
2020/12/31 09:51:28;;;;;;;3.80;3.50;;;2.40;99.90;;;;;;449542;262;27641;-75
2020/12/31 09:53:29;;;;;;;3.60;3.30;;;2.50;99.90;;;;;;460718;253;27535;-79
2020/12/31 09:55:31;;;;;;;3.70;3.22;;;2.60;99.90;;;;;;467759;253;27647;-77
2020/12/31 09:57:32;;;;;;;4.07;3.00;;;2.50;99.90;;;;;;461043;253;27517;-75
2020/12/31 09:59:33;;;;;;;4.05;3.65;;;2.50;99.90;;;;;;460758;258;27597;-75
2020/12/31 10:01:35;;;;;;;5.70;4.00;;;2.60;99.90;;;;;;460769;258;28165;-77
2020/12/31 10:03:36;;;;;;;3.33;3.03;;;2.60;99.90;;;;;;460860;258;27989;-75
2020/12/31 10:05:37;;;;;;;4.45;4.00;;;2.50;99.90;;;;;;460802;258;27971;-76
2020/12/31 10:07:38;;;;;;;4.72;3.20;;;2.40;99.90;;;;;;460848;258;27902;-76
2020/12/31 10:09:40;;;;;;;3.58;3.15;;;2.50;99.90;;;;;;460877;258;27578;-76
2020/12/31 10:11:41;;;;;;;3.87;3.58;;;2.50;99.90;;;;;;460900;258;27497;-76
2020/12/31 10:13:42;;;;;;;5.12;3.85;;;2.40;99.90;;;;;;460984;258;27477;-77
2020/12/31 10:15:43;;;;;;;3.90;3.50;;;2.40;99.90;;;;;;460957;258;27595;-76
2020/12/31 10:17:45;;;;;;;3.92;3.60;;;2.50;99.90;;;;;;460935;258;27493;-75
2020/12/31 10:19:46;;;;;;;4.40;3.55;;;2.60;99.90;;;;;;460988;258;27586;-76
2020/12/31 10:21:47;;;;;;;4.20;3.80;;;2.60;99.90;;;;;;460858;258;27775;-77
2020/12/31 10:23:48;;;;;;;3.80;3.47;;;2.50;99.90;;;;;;460746;258;27513;-75
2020/12/31 10:25:50;;;;;;;3.85;3.50;;;2.60;99.90;;;;;;460511;258;27617;-76
2020/12/31 10:27:51;;;;;;;3.20;2.90;;;2.70;99.90;;;;;;460734;258;27465;-76
2020/12/31 10:29:52;;;;;;;4.75;3.85;;;2.80;99.90;;;;;;460846;258;27946;-75
2020/12/31 10:31:53;;;;;;;3.65;3.35;;;2.90;99.90;;;;;;460452;258;28474;-76
2020/12/31 10:33:55;;;;;;;3.55;3.25;;;2.90;99.90;;;;;;460858;258;28102;-76
2020/12/31 10:35:56;;;;;;;4.43;3.42;;;2.90;99.90;;;;;;461108;258;27985;-76
2020/12/31 10:37:57;;;;;;;4.57;3.75;;;3.00;99.90;;;;;;460842;254;27595;-75